Air Navigation Services of Czech Republic
Airport: LKPJ Updated:  04.06.2020 10:30:25  UTC
 METAR LKPJ 04.06. 10:30 ...
METAR LKPJ 041030Z AUTO 15005KT 080V220 9999 FEW110 21/12 Q0999=